Accueil
METAR-TAF:

METAR-TAF

Aéroports :

Downtown Manhattan Heliport

New York, New York, États-Unis

latitude: 40-42-04N, longitude: 074-00-32W, altitude: 2 m

Observation

Le bulletin a été fait il y a 45 minutes, à 00:56 UTC
Vent 7 kt de sud-est
Température 23°C
Humidité 78%
Pression 1024 hPa
Visibilité: 16.1 km
Nuages fragmentés à une hauteur de 2100 ft

METAR: KJRB 160056Z AUTO 14007KT 10SM BKN021 23/19 A3023 RMK AO2 SLP235 T02330189 PNO $

Heure: 21:41 (01:41 UTC)


TAF: absent

Observations et prévisions météorologiques de plus de 4000 aéroports (messages METAR et TAF).

Les stations disponibles sont représentées par des disques jaunes et rouges sur la carte.

Passer la souris dessus pour voir le nom de la station.

Cliquer dessus pour voir les observations et prévisions météorologiques.

Pour changer de carte: cliquez sur les boutons verts avec une croix noire pour zoomer, sur le bouton vert avec un tiret pour effectuer un zoom arrière, ou sur les flèches vertes pour les cartes adjacentes.


METAR-TAF: